sensor_id;sensor_type;location;lat;lon;timestamp;temperature;humidity
65707;SHT31;52423;43.512;5.220;2023-04-28T00:01:14;13.79;73.99
65707;SHT31;52423;43.512;5.220;2023-04-28T00:03:39;13.68;74.15
65707;SHT31;52423;43.512;5.220;2023-04-28T00:06:05;13.67;73.82
65707;SHT31;52423;43.512;5.220;2023-04-28T00:08:30;13.72;73.60
65707;SHT31;52423;43.512;5.220;2023-04-28T00:10:56;13.70;73.52
65707;SHT31;52423;43.512;5.220;2023-04-28T00:13:21;13.65;73.59
65707;SHT31;52423;43.512;5.220;2023-04-28T00:15:49;13.64;74.10
65707;SHT31;52423;43.512;5.220;2023-04-28T00:18:14;13.51;74.57
65707;SHT31;52423;43.512;5.220;2023-04-28T00:20:39;13.50;74.75
65707;SHT31;52423;43.512;5.220;2023-04-28T00:23:05;13.46;74.90
65707;SHT31;52423;43.512;5.220;2023-04-28T00:25:30;13.44;74.75
65707;SHT31;52423;43.512;5.220;2023-04-28T00:27:55;13.41;74.90
65707;SHT31;52423;43.512;5.220;2023-04-28T00:30:21;13.40;74.98
65707;SHT31;52423;43.512;5.220;2023-04-28T00:32:46;13.53;74.77
65707;SHT31;52423;43.512;5.220;2023-04-28T00:35:12;13.50;74.74
65707;SHT31;52423;43.512;5.220;2023-04-28T00:37:38;13.41;74.84
65707;SHT31;52423;43.512;5.220;2023-04-28T00:40:03;13.44;74.95
65707;SHT31;52423;43.512;5.220;2023-04-28T00:42:29;13.41;75.13
65707;SHT31;52423;43.512;5.220;2023-04-28T00:44:55;13.44;74.92
65707;SHT31;52423;43.512;5.220;2023-04-28T00:47:21;13.47;74.91
65707;SHT31;52423;43.512;5.220;2023-04-28T00:49:46;13.43;74.72
65707;SHT31;52423;43.512;5.220;2023-04-28T00:52:14;13.54;74.60
65707;SHT31;52423;43.512;5.220;2023-04-28T00:54:40;13.53;74.69
65707;SHT31;52423;43.512;5.220;2023-04-28T00:57:07;13.54;74.55
65707;SHT31;52423;43.512;5.220;2023-04-28T00:59:33;13.41;74.91
65707;SHT31;52423;43.512;5.220;2023-04-28T01:01:59;13.40;75.36
65707;SHT31;52423;43.512;5.220;2023-04-28T01:04:25;13.50;74.88
65707;SHT31;52423;43.512;5.220;2023-04-28T01:06:52;13.63;74.39
65707;SHT31;52423;43.512;5.220;2023-04-28T01:09:19;13.70;74.21
65707;SHT31;52423;43.512;5.220;2023-04-28T01:11:45;13.65;74.21
65707;SHT31;52423;43.512;5.220;2023-04-28T01:14:10;13.46;74.78
65707;SHT31;52423;43.512;5.220;2023-04-28T01:16:37;13.33;75.34
65707;SHT31;52423;43.512;5.220;2023-04-28T01:19:05;13.30;75.57
65707;SHT31;52423;43.512;5.220;2023-04-28T01:21:32;13.40;74.95
65707;SHT31;52423;43.512;5.220;2023-04-28T01:23:58;13.46;74.72
65707;SHT31;52423;43.512;5.220;2023-04-28T01:26:23;13.57;74.18
65707;SHT31;52423;43.512;5.220;2023-04-28T01:28:49;13.68;73.65
65707;SHT31;52423;43.512;5.220;2023-04-28T01:31:15;13.71;73.01
65707;SHT31;52423;43.512;5.220;2023-04-28T01:33:40;13.81;72.91
65707;SHT31;52423;43.512;5.220;2023-04-28T01:36:06;13.94;72.81
65707;SHT31;52423;43.512;5.220;2023-04-28T01:38:31;13.92;72.49
65707;SHT31;52423;43.512;5.220;2023-04-28T01:40:58;13.88;72.57
65707;SHT31;52423;43.512;5.220;2023-04-28T01:43:23;13.86;72.35
65707;SHT31;52423;43.512;5.220;2023-04-28T01:45:48;13.67;73.59
65707;SHT31;52423;43.512;5.220;2023-04-28T01:48:14;13.60;73.50
65707;SHT31;52423;43.512;5.220;2023-04-28T01:50:39;13.57;73.23
65707;SHT31;52423;43.512;5.220;2023-04-28T01:53:05;13.63;73.09
65707;SHT31;52423;43.512;5.220;2023-04-28T01:55:30;13.57;73.34
65707;SHT31;52423;43.512;5.220;2023-04-28T01:57:55;13.51;73.68
65707;SHT31;52423;43.512;5.220;2023-04-28T02:00:22;13.39;74.22
65707;SHT31;52423;43.512;5.220;2023-04-28T02:02:48;13.39;73.92
65707;SHT31;52423;43.512;5.220;2023-04-28T02:05:13;13.53;73.34
65707;SHT31;52423;43.512;5.220;2023-04-28T02:07:38;13.60;72.59
65707;SHT31;52423;43.512;5.220;2023-04-28T02:10:04;13.61;72.21
65707;SHT31;52423;43.512;5.220;2023-04-28T02:12:30;13.58;71.94
65707;SHT31;52423;43.512;5.220;2023-04-28T02:14:55;13.41;73.34
65707;SHT31;52423;43.512;5.220;2023-04-28T02:17:20;13.26;73.70
65707;SHT31;52423;43.512;5.220;2023-04-28T02:19:46;13.27;73.22
65707;SHT31;52423;43.512;5.220;2023-04-28T02:22:11;13.27;73.02
65707;SHT31;52423;43.512;5.220;2023-04-28T02:24:36;13.36;72.25
65707;SHT31;52423;43.512;5.220;2023-04-28T02:27:03;13.39;72.68
65707;SHT31;52423;43.512;5.220;2023-04-28T02:29:29;13.22;73.68
65707;SHT31;52423;43.512;5.220;2023-04-28T02:31:55;13.10;74.17
65707;SHT31;52423;43.512;5.220;2023-04-28T02:34:20;13.12;73.77
65707;SHT31;52423;43.512;5.220;2023-04-28T02:36:45;13.06;73.42
65707;SHT31;52423;43.512;5.220;2023-04-28T02:39:12;13.10;73.35
65707;SHT31;52423;43.512;5.220;2023-04-28T02:41:37;13.13;72.47
65707;SHT31;52423;43.512;5.220;2023-04-28T02:44:03;13.28;72.83
65707;SHT31;52423;43.512;5.220;2023-04-28T02:46:28;13.37;72.40
65707;SHT31;52423;43.512;5.220;2023-04-28T02:48:54;13.41;71.82
65707;SHT31;52423;43.512;5.220;2023-04-28T02:51:19;13.39;71.48
65707;SHT31;52423;43.512;5.220;2023-04-28T02:53:45;13.37;71.78
65707;SHT31;52423;43.512;5.220;2023-04-28T02:56:10;13.43;71.28
65707;SHT31;52423;43.512;5.220;2023-04-28T02:58:36;13.50;71.18
65707;SHT31;52423;43.512;5.220;2023-04-28T03:01:01;13.43;71.08
65707;SHT31;52423;43.512;5.220;2023-04-28T03:03:26;13.40;70.67
65707;SHT31;52423;43.512;5.220;2023-04-28T03:05:52;13.41;70.98
65707;SHT31;52423;43.512;5.220;2023-04-28T03:08:17;13.40;70.67
65707;SHT31;52423;43.512;5.220;2023-04-28T03:10:44;13.37;70.65
65707;SHT31;52423;43.512;5.220;2023-04-28T03:13:10;13.33;70.85
65707;SHT31;52423;43.512;5.220;2023-04-28T03:15:35;13.39;70.89
65707;SHT31;52423;43.512;5.220;2023-04-28T03:18:01;13.39;70.64
65707;SHT31;52423;43.512;5.220;2023-04-28T03:20:26;13.39;70.80
65707;SHT31;52423;43.512;5.220;2023-04-28T03:22:52;13.36;70.56
65707;SHT31;52423;43.512;5.220;2023-04-28T03:25:17;13.39;70.27
65707;SHT31;52423;43.512;5.220;2023-04-28T03:27:43;13.39;70.24
65707;SHT31;52423;43.512;5.220;2023-04-28T03:30:08;13.39;70.26
65707;SHT31;52423;43.512;5.220;2023-04-28T03:32:34;13.33;70.19
65707;SHT31;52423;43.512;5.220;2023-04-28T03:35:00;13.34;70.24
65707;SHT31;52423;43.512;5.220;2023-04-28T03:37:25;13.36;70.25
65707;SHT31;52423;43.512;5.220;2023-04-28T03:39:51;13.28;70.35
65707;SHT31;52423;43.512;5.220;2023-04-28T03:42:16;13.37;70.27
65707;SHT31;52423;43.512;5.220;2023-04-28T03:44:42;13.37;70.42
65707;SHT31;52423;43.512;5.220;2023-04-28T03:47:07;13.40;70.22
65707;SHT31;52423;43.512;5.220;2023-04-28T03:49:32;13.27;70.54
65707;SHT31;52423;43.512;5.220;2023-04-28T03:51:58;13.30;70.47
65707;SHT31;52423;43.512;5.220;2023-04-28T03:54:23;13.30;70.52
65707;SHT31;52423;43.512;5.220;2023-04-28T03:56:48;13.32;70.76
65707;SHT31;52423;43.512;5.220;2023-04-28T03:59:14;13.36;70.84
65707;SHT31;52423;43.512;5.220;2023-04-28T04:01:39;13.33;70.76
65707;SHT31;52423;43.512;5.220;2023-04-28T04:04:05;13.30;70.96
65707;SHT31;52423;43.512;5.220;2023-04-28T04:06:31;13.26;71.09
65707;SHT31;52423;43.512;5.220;2023-04-28T04:08:56;13.22;71.33
65707;SHT31;52423;43.512;5.220;2023-04-28T04:11:22;13.26;71.25
65707;SHT31;52423;43.512;5.220;2023-04-28T04:13:47;13.26;71.51
65707;SHT31;52423;43.512;5.220;2023-04-28T04:16:13;13.36;71.32
65707;SHT31;52423;43.512;5.220;2023-04-28T04:18:40;13.30;71.35
65707;SHT31;52423;43.512;5.220;2023-04-28T04:21:05;13.30;71.36
65707;SHT31;52423;43.512;5.220;2023-04-28T04:23:31;13.37;71.29
65707;SHT31;52423;43.512;5.220;2023-04-28T04:25:56;13.28;71.27
65707;SHT31;52423;43.512;5.220;2023-04-28T04:28:21;13.30;71.54
65707;SHT31;52423;43.512;5.220;2023-04-28T04:30:47;13.24;71.41
65707;SHT31;52423;43.512;5.220;2023-04-28T04:33:12;13.24;71.53
65707;SHT31;52423;43.512;5.220;2023-04-28T04:35:37;13.24;71.47
65707;SHT31;52423;43.512;5.220;2023-04-28T04:38:03;13.27;71.49
65707;SHT31;52423;43.512;5.220;2023-04-28T04:40:28;13.34;71.47
65707;SHT31;52423;43.512;5.220;2023-04-28T04:42:54;13.37;71.60
65707;SHT31;52423;43.512;5.220;2023-04-28T04:45:19;13.41;71.30
65707;SHT31;52423;43.512;5.220;2023-04-28T04:47:45;13.41;71.25
65707;SHT31;52423;43.512;5.220;2023-04-28T04:50:11;13.40;71.19
65707;SHT31;52423;43.512;5.220;2023-04-28T04:52:37;13.40;71.33
65707;SHT31;52423;43.512;5.220;2023-04-28T04:55:02;13.41;71.39
65707;SHT31;52423;43.512;5.220;2023-04-28T04:57:28;13.41;71.25
65707;SHT31;52423;43.512;5.220;2023-04-28T04:59:54;13.39;71.35
65707;SHT31;52423;43.512;5.220;2023-04-28T05:02:19;13.43;71.42
65707;SHT31;52423;43.512;5.220;2023-04-28T05:04:44;13.44;71.26
65707;SHT31;52423;43.512;5.220;2023-04-28T05:07:10;13.48;71.13
65707;SHT31;52423;43.512;5.220;2023-04-28T05:09:35;13.47;71.21
65707;SHT31;52423;43.512;5.220;2023-04-28T05:12:01;13.53;71.02
65707;SHT31;52423;43.512;5.220;2023-04-28T05:14:26;13.55;70.94
65707;SHT31;52423;43.512;5.220;2023-04-28T05:16:51;13.63;70.87
65707;SHT31;52423;43.512;5.220;2023-04-28T05:19:17;13.67;70.78
65707;SHT31;52423;43.512;5.220;2023-04-28T05:21:42;13.72;70.60
65707;SHT31;52423;43.512;5.220;2023-04-28T05:24:08;13.77;70.53
65707;SHT31;52423;43.512;5.220;2023-04-28T05:26:34;13.85;70.39
65707;SHT31;52423;43.512;5.220;2023-04-28T05:29:00;13.91;70.29
65707;SHT31;52423;43.512;5.220;2023-04-28T05:31:25;13.95;70.13
65707;SHT31;52423;43.512;5.220;2023-04-28T05:33:51;14.02;70.35
65707;SHT31;52423;43.512;5.220;2023-04-28T05:36:16;14.09;69.94
65707;SHT31;52423;43.512;5.220;2023-04-28T05:38:42;14.15;69.69
65707;SHT31;52423;43.512;5.220;2023-04-28T05:41:08;14.25;69.54
65707;SHT31;52423;43.512;5.220;2023-04-28T05:43:33;14.28;69.67
65707;SHT31;52423;43.512;5.220;2023-04-28T05:45:59;14.34;69.56
65707;SHT31;52423;43.512;5.220;2023-04-28T05:48:25;14.43;69.51
65707;SHT31;52423;43.512;5.220;2023-04-28T05:50:50;14.53;69.54
65707;SHT31;52423;43.512;5.220;2023-04-28T05:53:15;14.62;69.20
65707;SHT31;52423;43.512;5.220;2023-04-28T05:55:41;14.63;68.89
65707;SHT31;52423;43.512;5.220;2023-04-28T05:58:06;14.63;68.81
65707;SHT31;52423;43.512;5.220;2023-04-28T06:00:32;14.69;68.84
65707;SHT31;52423;43.512;5.220;2023-04-28T06:02:58;14.72;68.87
65707;SHT31;52423;43.512;5.220;2023-04-28T06:05:24;14.79;68.69
65707;SHT31;52423;43.512;5.220;2023-04-28T06:07:49;14.79;68.79
65707;SHT31;52423;43.512;5.220;2023-04-28T06:10:15;14.90;68.61
65707;SHT31;52423;43.512;5.220;2023-04-28T06:12:41;14.98;68.26
65707;SHT31;52423;43.512;5.220;2023-04-28T06:15:06;15.12;68.60
65707;SHT31;52423;43.512;5.220;2023-04-28T06:17:32;15.22;67.67
65707;SHT31;52423;43.512;5.220;2023-04-28T06:19:58;15.36;67.65
65707;SHT31;52423;43.512;5.220;2023-04-28T06:22:27;15.52;67.44
65707;SHT31;52423;43.512;5.220;2023-04-28T06:24:52;15.59;66.43
65707;SHT31;52423;43.512;5.220;2023-04-28T06:27:17;15.78;65.89
65707;SHT31;52423;43.512;5.220;2023-04-28T06:29:43;15.86;65.30
65707;SHT31;52423;43.512;5.220;2023-04-28T06:32:09;15.92;65.20
65707;SHT31;52423;43.512;5.220;2023-04-28T06:34:34;16.10;65.13
65707;SHT31;52423;43.512;5.220;2023-04-28T06:37:00;16.14;64.30
65707;SHT31;52423;43.512;5.220;2023-04-28T06:39:26;16.23;65.13
65707;SHT31;52423;43.512;5.220;2023-04-28T06:41:52;16.50;63.98
65707;SHT31;52423;43.512;5.220;2023-04-28T06:44:18;16.61;63.46
65707;SHT31;52423;43.512;5.220;2023-04-28T06:46:43;16.74;62.75
65707;SHT31;52423;43.512;5.220;2023-04-28T06:49:08;16.78;62.46
65707;SHT31;52423;43.512;5.220;2023-04-28T06:51:34;16.78;63.62
65707;SHT31;52423;43.512;5.220;2023-04-28T06:56:35;16.71;62.72
65707;SHT31;52423;43.512;5.220;2023-04-28T06:59:00;16.72;62.70
65707;SHT31;52423;43.512;5.220;2023-04-28T07:01:27;16.72;62.26
65707;SHT31;52423;43.512;5.220;2023-04-28T07:03:53;16.79;62.54
65707;SHT31;52423;43.512;5.220;2023-04-28T07:06:18;16.88;62.23
65707;SHT31;52423;43.512;5.220;2023-04-28T07:08:44;17.09;62.08
65707;SHT31;52423;43.512;5.220;2023-04-28T07:11:09;17.15;61.29
65707;SHT31;52423;43.512;5.220;2023-04-28T07:13:35;17.19;61.20
65707;SHT31;52423;43.512;5.220;2023-04-28T07:16:00;17.30;62.14
65707;SHT31;52423;43.512;5.220;2023-04-28T07:18:26;17.69;60.08
65707;SHT31;52423;43.512;5.220;2023-04-28T07:20:51;18.01;59.13
65707;SHT31;52423;43.512;5.220;2023-04-28T07:23:17;18.35;58.04
65707;SHT31;52423;43.512;5.220;2023-04-28T07:25:42;18.28;57.69
65707;SHT31;52423;43.512;5.220;2023-04-28T07:28:08;18.67;57.14
65707;SHT31;52423;43.512;5.220;2023-04-28T07:30:34;18.59;57.10
65707;SHT31;52423;43.512;5.220;2023-04-28T07:33:00;18.49;57.75
65707;SHT31;52423;43.512;5.220;2023-04-28T07:35:25;18.41;57.29
65707;SHT31;52423;43.512;5.220;2023-04-28T07:37:51;18.53;57.67
65707;SHT31;52423;43.512;5.220;2023-04-28T07:40:17;18.48;56.72
65707;SHT31;52423;43.512;5.220;2023-04-28T07:42:43;18.51;56.66
65707;SHT31;52423;43.512;5.220;2023-04-28T07:45:09;18.52;56.76
65707;SHT31;52423;43.512;5.220;2023-04-28T07:47:35;18.65;56.10
65707;SHT31;52423;43.512;5.220;2023-04-28T07:50:01;18.65;55.18
65707;SHT31;52423;43.512;5.220;2023-04-28T07:52:34;18.76;55.48
65707;SHT31;52423;43.512;5.220;2023-04-28T07:55:00;18.80;55.07
65707;SHT31;52423;43.512;5.220;2023-04-28T07:57:26;18.97;54.87
65707;SHT31;52423;43.512;5.220;2023-04-28T07:59:53;19.17;54.50
65707;SHT31;52423;43.512;5.220;2023-04-28T08:02:18;19.38;54.44
65707;SHT31;52423;43.512;5.220;2023-04-28T08:04:44;19.35;53.93
65707;SHT31;52423;43.512;5.220;2023-04-28T08:07:10;19.54;53.24
65707;SHT31;52423;43.512;5.220;2023-04-28T08:09:35;19.59;52.32
65707;SHT31;52423;43.512;5.220;2023-04-28T08:12:01;19.51;53.36
65707;SHT31;52423;43.512;5.220;2023-04-28T08:14:27;19.66;52.51
65707;SHT31;52423;43.512;5.220;2023-04-28T08:16:52;19.68;52.75
65707;SHT31;52423;43.512;5.220;2023-04-28T08:19:18;19.85;52.08
65707;SHT31;52423;43.512;5.220;2023-04-28T08:21:43;19.87;52.93
65707;SHT31;52423;43.512;5.220;2023-04-28T08:24:08;20.10;53.27
65707;SHT31;52423;43.512;5.220;2023-04-28T08:26:35;20.08;51.81
65707;SHT31;52423;43.512;5.220;2023-04-28T08:29:01;20.58;51.39
65707;SHT31;52423;43.512;5.220;2023-04-28T08:31:26;20.37;51.63
65707;SHT31;52423;43.512;5.220;2023-04-28T08:33:52;20.60;50.76
65707;SHT31;52423;43.512;5.220;2023-04-28T08:36:17;20.34;52.00
65707;SHT31;52423;43.512;5.220;2023-04-28T08:38:43;20.43;52.17
65707;SHT31;52423;43.512;5.220;2023-04-28T08:41:10;20.47;51.95
65707;SHT31;52423;43.512;5.220;2023-04-28T08:43:37;20.64;51.25
65707;SHT31;52423;43.512;5.220;2023-04-28T08:46:06;20.78;52.69
65707;SHT31;52423;43.512;5.220;2023-04-28T08:48:38;20.71;50.53
65707;SHT31;52423;43.512;5.220;2023-04-28T08:51:03;20.74;50.79
65707;SHT31;52423;43.512;5.220;2023-04-28T08:53:31;20.75;52.81
65707;SHT31;52423;43.512;5.220;2023-04-28T08:56:00;20.78;52.16
65707;SHT31;52423;43.512;5.220;2023-04-28T08:58:28;20.83;51.85
65707;SHT31;52423;43.512;5.220;2023-04-28T09:00:53;20.81;52.29
65707;SHT31;52423;43.512;5.220;2023-04-28T09:03:19;21.06;52.12
65707;SHT31;52423;43.512;5.220;2023-04-28T09:05:44;21.11;52.81
65707;SHT31;52423;43.512;5.220;2023-04-28T09:08:10;21.06;52.11
65707;SHT31;52423;43.512;5.220;2023-04-28T09:10:39;21.38;51.37
65707;SHT31;52423;43.512;5.220;2023-04-28T09:13:04;21.36;51.98
65707;SHT31;52423;43.512;5.220;2023-04-28T09:15:32;21.45;52.28
65707;SHT31;52423;43.512;5.220;2023-04-28T09:17:59;21.57;52.53
65707;SHT31;52423;43.512;5.220;2023-04-28T09:20:26;21.64;51.50
65707;SHT31;52423;43.512;5.220;2023-04-28T09:22:53;21.97;52.08
65707;SHT31;52423;43.512;5.220;2023-04-28T09:25:19;21.98;50.61
65707;SHT31;52423;43.512;5.220;2023-04-28T09:27:48;21.83;51.31
65707;SHT31;52423;43.512;5.220;2023-04-28T09:30:14;21.82;52.10
65707;SHT31;52423;43.512;5.220;2023-04-28T09:32:40;21.96;51.98
65707;SHT31;52423;43.512;5.220;2023-04-28T09:35:05;22.24;51.69
65707;SHT31;52423;43.512;5.220;2023-04-28T09:37:32;22.35;49.83
65707;SHT31;52423;43.512;5.220;2023-04-28T09:40:06;22.21;50.38
65707;SHT31;52423;43.512;5.220;2023-04-28T09:42:36;22.30;50.43
65707;SHT31;52423;43.512;5.220;2023-04-28T09:45:06;22.11;50.96
65707;SHT31;52423;43.512;5.220;2023-04-28T09:47:34;22.24;50.03
65707;SHT31;52423;43.512;5.220;2023-04-28T09:50:03;22.08;50.98
65707;SHT31;52423;43.512;5.220;2023-04-28T09:52:29;22.41;51.01
65707;SHT31;52423;43.512;5.220;2023-04-28T09:54:55;22.59;49.31
65707;SHT31;52423;43.512;5.220;2023-04-28T09:57:22;22.24;50.08
65707;SHT31;52423;43.512;5.220;2023-04-28T09:59:50;22.47;49.84
65707;SHT31;52423;43.512;5.220;2023-04-28T10:02:17;22.11;49.91
65707;SHT31;52423;43.512;5.220;2023-04-28T10:04:43;22.41;51.09
65707;SHT31;52423;43.512;5.220;2023-04-28T10:07:11;22.61;49.80
65707;SHT31;52423;43.512;5.220;2023-04-28T10:09:38;22.73;50.10
65707;SHT31;52423;43.512;5.220;2023-04-28T10:12:04;22.96;49.96
65707;SHT31;52423;43.512;5.220;2023-04-28T10:14:31;22.71;49.86
65707;SHT31;52423;43.512;5.220;2023-04-28T10:16:58;22.88;50.43
65707;SHT31;52423;43.512;5.220;2023-04-28T10:19:24;22.89;49.97
65707;SHT31;52423;43.512;5.220;2023-04-28T10:22:24;22.69;49.89
65707;SHT31;52423;43.512;5.220;2023-04-28T10:27:48;22.72;49.48
65707;SHT31;52423;43.512;5.220;2023-04-28T10:30:19;22.52;50.54
65707;SHT31;52423;43.512;5.220;2023-04-28T10:32:45;22.82;50.84
65707;SHT31;52423;43.512;5.220;2023-04-28T10:38:06;22.81;50.96
65707;SHT31;52423;43.512;5.220;2023-04-28T10:40:36;22.98;50.77
65707;SHT31;52423;43.512;5.220;2023-04-28T10:43:03;23.07;50.75
65707;SHT31;52423;43.512;5.220;2023-04-28T10:48:13;22.75;52.26
65707;SHT31;52423;43.512;5.220;2023-04-28T10:56:22;22.66;51.79
65707;SHT31;52423;43.512;5.220;2023-04-28T10:58:53;22.71;52.41
65707;SHT31;52423;43.512;5.220;2023-04-28T11:01:29;22.76;52.20
65707;SHT31;52423;43.512;5.220;2023-04-28T11:03:57;22.56;52.92
65707;SHT31;52423;43.512;5.220;2023-04-28T11:06:38;22.51;53.70
65707;SHT31;52423;43.512;5.220;2023-04-28T11:16:55;22.27;54.17
65707;SHT31;52423;43.512;5.220;2023-04-28T11:19:25;22.31;55.56
65707;SHT31;52423;43.512;5.220;2023-04-28T11:21:52;21.84;55.76
65707;SHT31;52423;43.512;5.220;2023-04-28T11:24:19;21.79;55.62
65707;SHT31;52423;43.512;5.220;2023-04-28T11:26:44;21.97;55.93
65707;SHT31;52423;43.512;5.220;2023-04-28T11:29:10;21.97;53.90
65707;SHT31;52423;43.512;5.220;2023-04-28T11:31:37;22.27;54.84
65707;SHT31;52423;43.512;5.220;2023-04-28T11:34:04;22.17;54.26
65707;SHT31;52423;43.512;5.220;2023-04-28T11:38:58;22.52;53.28
65707;SHT31;52423;43.512;5.220;2023-04-28T11:41:24;22.38;52.99
65707;SHT31;52423;43.512;5.220;2023-04-28T11:43:51;22.56;52.87
65707;SHT31;52423;43.512;5.220;2023-04-28T11:46:22;22.81;52.39
65707;SHT31;52423;43.512;5.220;2023-04-28T11:48:48;22.55;53.22
65707;SHT31;52423;43.512;5.220;2023-04-28T11:51:33;22.95;52.74
65707;SHT31;52423;43.512;5.220;2023-04-28T11:53:59;23.09;52.47
65707;SHT31;52423;43.512;5.220;2023-04-28T11:56:26;22.82;50.86
65707;SHT31;52423;43.512;5.220;2023-04-28T11:59:02;22.86;51.95
65707;SHT31;52423;43.512;5.220;2023-04-28T12:01:28;22.79;51.15
65707;SHT31;52423;43.512;5.220;2023-04-28T12:03:54;22.93;51.58
65707;SHT31;52423;43.512;5.220;2023-04-28T12:06:20;22.51;51.52
65707;SHT31;52423;43.512;5.220;2023-04-28T12:08:45;22.56;51.77
65707;SHT31;52423;43.512;5.220;2023-04-28T12:11:12;22.34;52.35
65707;SHT31;52423;43.512;5.220;2023-04-28T12:13:38;22.03;53.23
65707;SHT31;52423;43.512;5.220;2023-04-28T12:16:05;21.93;54.05
65707;SHT31;52423;43.512;5.220;2023-04-28T12:18:35;21.87;53.73
65707;SHT31;52423;43.512;5.220;2023-04-28T12:21:01;21.94;54.67
65707;SHT31;52423;43.512;5.220;2023-04-28T12:23:33;21.66;54.57
65707;SHT31;52423;43.512;5.220;2023-04-28T12:26:00;21.62;54.99
65707;SHT31;52423;43.512;5.220;2023-04-28T12:28:45;21.57;54.90
65707;SHT31;52423;43.512;5.220;2023-04-28T12:31:11;21.50;55.48
65707;SHT31;52423;43.512;5.220;2023-04-28T12:33:36;21.60;55.33
65707;SHT31;52423;43.512;5.220;2023-04-28T12:36:05;21.89;54.89
65707;SHT31;52423;43.512;5.220;2023-04-28T12:38:31;22.07;54.21
65707;SHT31;52423;43.512;5.220;2023-04-28T12:40:57;22.42;54.43
65707;SHT31;52423;43.512;5.220;2023-04-28T12:43:22;22.35;52.93
65707;SHT31;52423;43.512;5.220;2023-04-28T12:45:54;22.51;53.21
65707;SHT31;52423;43.512;5.220;2023-04-28T12:48:21;22.44;53.55
65707;SHT31;52423;43.512;5.220;2023-04-28T12:50:48;22.91;53.00
65707;SHT31;52423;43.512;5.220;2023-04-28T12:53:13;22.95;53.21
65707;SHT31;52423;43.512;5.220;2023-04-28T12:55:38;22.55;54.16
65707;SHT31;52423;43.512;5.220;2023-04-28T12:58:04;22.69;54.15
65707;SHT31;52423;43.512;5.220;2023-04-28T13:00:30;22.89;54.31
65707;SHT31;52423;43.512;5.220;2023-04-28T13:02:56;22.86;52.61
65707;SHT31;52423;43.512;5.220;2023-04-28T13:05:21;22.69;53.76
65707;SHT31;52423;43.512;5.220;2023-04-28T13:07:47;22.64;53.62
65707;SHT31;52423;43.512;5.220;2023-04-28T13:10:15;22.49;54.55
65707;SHT31;52423;43.512;5.220;2023-04-28T13:12:40;22.66;53.79
65707;SHT31;52423;43.512;5.220;2023-04-28T13:15:06;22.56;54.10
65707;SHT31;52423;43.512;5.220;2023-04-28T13:17:32;22.89;54.33
65707;SHT31;52423;43.512;5.220;2023-04-28T13:19:58;23.02;54.53
65707;SHT31;52423;43.512;5.220;2023-04-28T13:22:25;22.55;54.05
65707;SHT31;52423;43.512;5.220;2023-04-28T13:24:51;22.59;53.72
65707;SHT31;52423;43.512;5.220;2023-04-28T13:27:16;22.33;54.18
65707;SHT31;52423;43.512;5.220;2023-04-28T13:29:41;22.45;54.03
65707;SHT31;52423;43.512;5.220;2023-04-28T13:32:07;22.37;54.36
65707;SHT31;52423;43.512;5.220;2023-04-28T13:34:33;22.18;53.49
65707;SHT31;52423;43.512;5.220;2023-04-28T13:36:58;22.08;53.73
65707;SHT31;52423;43.512;5.220;2023-04-28T13:39:24;21.92;53.98
65707;SHT31;52423;43.512;5.220;2023-04-28T13:41:49;22.15;53.33
65707;SHT31;52423;43.512;5.220;2023-04-28T13:44:15;22.20;52.97
65707;SHT31;52423;43.512;5.220;2023-04-28T13:46:41;22.24;52.77
65707;SHT31;52423;43.512;5.220;2023-04-28T13:49:08;22.52;52.69
65707;SHT31;52423;43.512;5.220;2023-04-28T13:51:34;22.27;51.71
65707;SHT31;52423;43.512;5.220;2023-04-28T13:53:59;22.14;52.42
65707;SHT31;52423;43.512;5.220;2023-04-28T13:56:29;22.10;52.47
65707;SHT31;52423;43.512;5.220;2023-04-28T13:58:55;22.24;52.52
65707;SHT31;52423;43.512;5.220;2023-04-28T14:01:20;22.30;52.40
65707;SHT31;52423;43.512;5.220;2023-04-28T14:03:46;22.42;52.44
65707;SHT31;52423;43.512;5.220;2023-04-28T14:06:11;22.28;52.69
65707;SHT31;52423;43.512;5.220;2023-04-28T14:08:37;22.52;52.99
65707;SHT31;52423;43.512;5.220;2023-04-28T14:11:02;22.66;52.86
65707;SHT31;52423;43.512;5.220;2023-04-28T14:13:28;22.51;52.41
65707;SHT31;52423;43.512;5.220;2023-04-28T14:15:53;22.61;52.41
65707;SHT31;52423;43.512;5.220;2023-04-28T14:18:19;22.22;52.72
65707;SHT31;52423;43.512;5.220;2023-04-28T14:20:45;22.34;52.05
65707;SHT31;52423;43.512;5.220;2023-04-28T14:23:10;22.44;52.40
65707;SHT31;52423;43.512;5.220;2023-04-28T14:25:36;22.56;52.87
65707;SHT31;52423;43.512;5.220;2023-04-28T14:28:02;22.27;52.44
65707;SHT31;52423;43.512;5.220;2023-04-28T14:30:27;22.47;53.28
65707;SHT31;52423;43.512;5.220;2023-04-28T14:32:52;22.56;52.64
65707;SHT31;52423;43.512;5.220;2023-04-28T14:35:18;22.38;52.98
65707;SHT31;52423;43.512;5.220;2023-04-28T14:37:45;22.20;53.47
65707;SHT31;52423;43.512;5.220;2023-04-28T14:40:11;22.18;54.73
65707;SHT31;52423;43.512;5.220;2023-04-28T14:42:37;21.93;52.79
65707;SHT31;52423;43.512;5.220;2023-04-28T14:45:07;21.86;54.20
65707;SHT31;52423;43.512;5.220;2023-04-28T14:47:36;21.77;54.26
65707;SHT31;52423;43.512;5.220;2023-04-28T14:50:02;21.74;55.09
65707;SHT31;52423;43.512;5.220;2023-04-28T14:52:28;21.62;55.45
65707;SHT31;52423;43.512;5.220;2023-04-28T14:54:55;21.63;56.60
65707;SHT31;52423;43.512;5.220;2023-04-28T14:57:20;21.52;56.54
65707;SHT31;52423;43.512;5.220;2023-04-28T14:59:46;21.62;56.56
65707;SHT31;52423;43.512;5.220;2023-04-28T15:02:11;21.57;56.94
65707;SHT31;52423;43.512;5.220;2023-04-28T15:04:40;21.57;56.92
65707;SHT31;52423;43.512;5.220;2023-04-28T15:07:06;21.35;57.15
65707;SHT31;52423;43.512;5.220;2023-04-28T15:09:33;21.53;57.66
65707;SHT31;52423;43.512;5.220;2023-04-28T15:11:59;21.49;57.93
65707;SHT31;52423;43.512;5.220;2023-04-28T15:14:25;21.47;57.79
65707;SHT31;52423;43.512;5.220;2023-04-28T15:16:51;21.49;57.76
65707;SHT31;52423;43.512;5.220;2023-04-28T15:19:16;21.42;58.03
65707;SHT31;52423;43.512;5.220;2023-04-28T15:21:41;21.36;58.14
65707;SHT31;52423;43.512;5.220;2023-04-28T15:24:07;21.39;58.29
65707;SHT31;52423;43.512;5.220;2023-04-28T15:26:32;21.36;58.67
65707;SHT31;52423;43.512;5.220;2023-04-28T15:28:59;21.29;58.47
65707;SHT31;52423;43.512;5.220;2023-04-28T15:31:25;21.33;58.39
65707;SHT31;52423;43.512;5.220;2023-04-28T15:33:52;21.16;59.17
65707;SHT31;52423;43.512;5.220;2023-04-28T15:36:18;20.91;58.72
65707;SHT31;52423;43.512;5.220;2023-04-28T15:38:46;20.95;58.49
65707;SHT31;52423;43.512;5.220;2023-04-28T15:41:12;20.94;59.04
65707;SHT31;52423;43.512;5.220;2023-04-28T15:43:38;20.85;59.15
65707;SHT31;52423;43.512;5.220;2023-04-28T15:46:04;20.78;58.82
65707;SHT31;52423;43.512;5.220;2023-04-28T15:48:33;20.91;58.57
65707;SHT31;52423;43.512;5.220;2023-04-28T15:50:59;20.84;58.67